createdAt,value
2019-02-24T00:00:49.891Z,28.63
2019-02-24T00:03:19.366Z,38.73
2019-02-24T00:05:48.819Z,35.60
2019-02-24T00:08:18.214Z,35.97
2019-02-24T00:10:47.668Z,14.10
2019-02-24T00:13:17.191Z,42.10
2019-02-24T00:15:46.611Z,24.60
2019-02-24T00:18:16.041Z,33.57
2019-02-24T00:20:45.470Z,28.73
2019-02-24T00:23:15.146Z,33.73
2019-02-24T00:25:44.627Z,33.93
2019-02-24T00:28:14.067Z,38.03
2019-02-24T00:30:43.770Z,30.60
2019-02-24T00:33:13.196Z,33.47
2019-02-24T00:35:42.688Z,27.10
2019-02-24T00:38:12.276Z,26.43
2019-02-24T00:40:41.804Z,32.47
2019-02-24T00:43:11.216Z,39.70
2019-02-24T00:45:40.671Z,21.30
2019-02-24T00:48:10.671Z,33.37
2019-02-24T00:50:40.176Z,35.93
2019-02-24T00:53:09.976Z,18.00
2019-02-24T00:55:39.436Z,20.77
2019-02-24T00:58:16.008Z,47.97
2019-02-24T01:00:40.342Z,26.83
2019-02-24T01:03:09.888Z,25.13
2019-02-24T01:05:39.314Z,37.50
2019-02-24T01:08:08.927Z,37.00
2019-02-24T01:10:38.417Z,31.53
2019-02-24T01:13:07.836Z,29.93
2019-02-24T01:15:37.442Z,35.47
2019-02-24T01:18:06.922Z,29.40
2019-02-24T01:20:36.372Z,33.80
2019-02-24T01:23:05.828Z,25.57
2019-02-24T01:25:35.788Z,35.97
2019-02-24T01:28:05.260Z,42.37
2019-02-24T01:30:35.032Z,21.77
2019-02-24T01:33:04.557Z,30.77
2019-02-24T01:35:34.017Z,38.37
2019-02-24T01:38:03.562Z,35.90
2019-02-24T01:40:33.015Z,53.53
2019-02-24T01:43:02.451Z,38.37
2019-02-24T01:45:32.312Z,28.80
2019-02-24T01:48:01.762Z,34.93
2019-02-24T01:50:31.436Z,35.73
2019-02-24T01:53:01.036Z,37.17
2019-02-24T01:55:30.487Z,21.77
2019-02-24T01:57:59.951Z,38.97
2019-02-24T02:00:29.443Z,38.77
2019-02-24T02:02:59.025Z,46.20
2019-02-24T02:05:28.693Z,35.47
2019-02-24T02:07:58.122Z,37.83
2019-02-24T02:10:27.607Z,37.80
2019-02-24T02:12:57.472Z,31.70
2019-02-24T02:15:27.075Z,30.00
2019-02-24T02:17:56.561Z,35.80
2019-02-24T02:20:26.282Z,35.53
2019-02-24T02:22:55.788Z,33.90
2019-02-24T02:25:25.219Z,34.30
2019-02-24T02:27:54.842Z,39.73
2019-02-24T02:30:24.266Z,23.17
2019-02-24T02:32:53.788Z,22.10
2019-02-24T02:35:23.634Z,29.93
2019-02-24T02:37:53.136Z,40.17
2019-02-24T02:40:23.109Z,42.90
2019-02-24T02:42:52.543Z,34.60
2019-02-24T02:45:22.379Z,24.87
2019-02-24T02:47:51.845Z,38.57
2019-02-24T02:50:21.295Z,28.50
2019-02-24T02:52:50.836Z,25.73
2019-02-24T02:55:20.294Z,22.90
2019-02-24T02:57:49.727Z,35.43
2019-02-24T03:00:35.540Z,45.37
2019-02-24T03:03:04.982Z,39.77
2019-02-24T03:05:34.586Z,40.67
2019-02-24T03:08:12.579Z,29.87
2019-02-24T03:10:42.072Z,32.53
2019-02-24T03:13:11.523Z,43.07
2019-02-24T03:15:41.391Z,22.37
2019-02-24T03:18:10.815Z,21.20
2019-02-24T03:20:40.258Z,42.80
2019-02-24T03:23:09.784Z,44.00
2019-02-24T03:25:39.228Z,41.77
2019-02-24T03:28:08.668Z,34.73
2019-02-24T03:30:38.083Z,46.03
2019-02-24T03:33:07.736Z,41.23
2019-02-24T03:35:37.172Z,25.30
2019-02-24T03:38:06.571Z,52.23
2019-02-24T03:40:36.066Z,25.43
2019-02-24T03:43:05.568Z,24.40
2019-02-24T03:45:35.012Z,19.70
2019-02-24T03:48:04.430Z,46.77
2019-02-24T03:50:33.996Z,42.80
2019-02-24T03:53:03.448Z,48.93
2019-02-24T03:55:32.921Z,28.70
2019-02-24T03:58:02.659Z,43.53
2019-02-24T04:00:32.112Z,45.30
2019-02-24T04:03:01.645Z,40.23
2019-02-24T04:05:31.076Z,47.57
2019-02-24T04:08:01.150Z,59.50
2019-02-24T04:10:30.660Z,49.70
2019-02-24T04:13:00.123Z,49.37
2019-02-24T04:15:29.636Z,60.27
2019-02-24T04:17:59.152Z,52.07
2019-02-24T04:20:28.788Z,44.33
2019-02-24T04:22:58.200Z,33.03
2019-02-24T04:25:27.649Z,44.10
2019-02-24T04:27:57.123Z,16.03
2019-02-24T04:30:26.602Z,41.80
2019-02-24T04:32:56.040Z,49.90
2019-02-24T04:35:25.474Z,44.47
2019-02-24T04:37:55.084Z,43.77
2019-02-24T04:40:24.543Z,45.63
2019-02-24T04:42:53.989Z,49.47
2019-02-24T04:45:23.441Z,21.17
2019-02-24T04:47:53.184Z,24.27
2019-02-24T04:50:22.567Z,34.23
2019-02-24T04:52:51.985Z,30.13
2019-02-24T04:55:21.603Z,43.07
2019-02-24T04:57:51.088Z,44.70
2019-02-24T05:00:20.517Z,26.50
2019-02-24T05:02:50.022Z,25.57
2019-02-24T05:05:19.702Z,46.27
2019-02-24T05:07:49.231Z,38.23
2019-02-24T05:10:18.656Z,41.07
2019-02-24T05:12:48.222Z,22.27
2019-02-24T05:15:17.680Z,54.33
2019-02-24T05:17:47.132Z,33.33
2019-02-24T05:20:16.631Z,43.93
2019-02-24T05:22:46.096Z,49.40
2019-02-24T05:25:15.757Z,24.67
2019-02-24T05:27:45.369Z,43.37
2019-02-24T05:30:14.899Z,56.53
2019-02-24T05:32:44.399Z,56.53
2019-02-24T05:35:14.058Z,54.77
2019-02-24T05:37:43.568Z,42.67
2019-02-24T05:40:12.979Z,49.03
2019-02-24T05:42:42.682Z,45.70
2019-02-24T05:45:12.342Z,47.97
2019-02-24T05:47:41.751Z,24.10
2019-02-24T05:50:11.211Z,49.87
2019-02-24T05:52:40.615Z,58.63
2019-02-24T05:55:10.067Z,58.13
2019-02-24T05:57:39.505Z,56.17
2019-02-24T06:00:09.367Z,41.70
2019-02-24T06:02:38.865Z,39.30
2019-02-24T06:05:08.386Z,48.07
2019-02-24T06:07:37.947Z,52.13
2019-02-24T06:10:07.569Z,53.40
2019-02-24T06:12:37.067Z,42.70
2019-02-24T06:15:06.713Z,44.50
2019-02-24T06:17:36.195Z,44.20
2019-02-24T06:20:05.997Z,32.37
2019-02-24T06:22:35.388Z,39.77
2019-02-24T06:25:05.071Z,45.37
2019-02-24T06:27:34.726Z,40.43
2019-02-24T06:30:05.290Z,46.77
2019-02-24T06:32:35.409Z,33.87
2019-02-24T06:35:05.204Z,43.03
2019-02-24T06:37:34.654Z,39.87
2019-02-24T06:40:04.242Z,31.93
2019-02-24T06:42:33.830Z,48.40
2019-02-24T06:45:03.386Z,46.73
2019-02-24T06:47:32.976Z,47.90
2019-02-24T06:50:02.706Z,52.23
2019-02-24T06:52:32.149Z,44.33
2019-02-24T06:55:01.785Z,43.43
2019-02-24T06:57:31.522Z,35.53
2019-02-24T07:00:01.111Z,47.67
2019-02-24T07:02:30.621Z,43.03
2019-02-24T07:05:00.281Z,42.87
2019-02-24T07:07:29.756Z,42.50
2019-02-24T07:09:59.325Z,45.80
2019-02-24T07:12:28.891Z,36.67
2019-02-24T07:14:58.691Z,47.87
2019-02-24T07:17:28.150Z,45.87
2019-02-24T07:19:57.570Z,36.13
2019-02-24T07:22:27.227Z,45.33
2019-02-24T07:24:56.843Z,37.33
2019-02-24T07:27:26.253Z,47.57
2019-02-24T07:29:55.905Z,42.73
2019-02-24T07:32:25.388Z,23.70
2019-02-24T07:34:54.845Z,30.30
2019-02-24T07:37:24.702Z,40.47
2019-02-24T07:39:54.253Z,42.77
2019-02-24T07:42:23.800Z,31.93
2019-02-24T07:44:53.265Z,34.70
2019-02-24T07:47:22.809Z,27.33
2019-02-24T07:49:52.563Z,40.40
2019-02-24T07:52:22.063Z,36.27
2019-02-24T07:54:51.487Z,33.43
2019-02-24T07:57:21.135Z,35.00
2019-02-24T07:59:50.617Z,40.93
2019-02-24T08:02:20.125Z,39.03
2019-02-24T08:04:49.589Z,37.97
2019-02-24T08:07:19.217Z,35.83
2019-02-24T08:09:48.959Z,37.80
2019-02-24T08:12:18.665Z,36.37
2019-02-24T08:14:48.114Z,57.87
2019-02-24T08:17:17.535Z,35.73
2019-02-24T08:19:47.198Z,40.87
2019-02-24T08:22:16.697Z,38.70
2019-02-24T08:24:46.175Z,37.60
2019-02-24T08:27:15.982Z,35.57
2019-02-24T08:29:45.550Z,37.37
2019-02-24T08:32:15.299Z,39.97
2019-02-24T08:34:44.830Z,36.97
2019-02-24T08:37:14.660Z,39.73
2019-02-24T08:39:44.124Z,39.40
2019-02-24T08:42:13.672Z,37.80
2019-02-24T08:44:43.300Z,35.73
2019-02-24T08:47:12.726Z,23.83
2019-02-24T08:49:42.263Z,36.73
2019-02-24T08:52:11.865Z,41.47
2019-02-24T08:54:41.318Z,39.20
2019-02-24T08:57:10.815Z,33.87
2019-02-24T08:59:40.437Z,33.70
2019-02-24T09:02:09.950Z,36.17
2019-02-24T09:04:39.477Z,32.17
2019-02-24T09:07:09.092Z,30.70
2019-02-24T09:09:38.504Z,38.63
2019-02-24T09:12:08.163Z,38.10
2019-02-24T09:14:37.777Z,36.73
2019-02-24T09:17:07.288Z,35.17
2019-02-24T09:19:36.868Z,34.83
2019-02-24T09:22:06.555Z,38.67
2019-02-24T09:24:36.086Z,36.73
2019-02-24T09:27:06.409Z,31.77
2019-02-24T09:29:36.181Z,34.48
2019-02-24T09:32:05.681Z,34.25
2019-02-24T09:34:35.176Z,32.58
2019-02-24T09:37:04.754Z,34.20
2019-02-24T09:39:34.441Z,35.33
2019-02-24T09:42:04.092Z,30.75
2019-02-24T09:44:33.662Z,31.20
2019-02-24T09:47:03.482Z,32.23
2019-02-24T09:49:33.104Z,31.07
2019-02-24T09:52:02.596Z,31.35
2019-02-24T09:54:32.052Z,31.05
2019-02-24T09:57:01.616Z,29.80
2019-02-24T09:59:31.196Z,31.25
2019-02-24T10:02:00.750Z,30.27
2019-02-24T10:04:30.116Z,32.05
2019-02-24T10:06:59.593Z,30.30
2019-02-24T10:09:29.128Z,28.98
2019-02-24T10:11:58.659Z,34.70
2019-02-24T10:14:28.178Z,34.08
2019-02-24T10:16:57.844Z,32.55
2019-02-24T10:19:27.358Z,34.90
2019-02-24T10:21:56.772Z,29.80
2019-02-24T10:24:26.229Z,32.07
2019-02-24T10:26:55.796Z,33.90
2019-02-24T10:29:25.316Z,33.23
2019-02-24T10:31:54.846Z,29.67
2019-02-24T10:34:24.341Z,30.90
2019-02-24T10:36:53.824Z,32.98
2019-02-24T10:39:29.485Z,29.90
2019-02-24T10:41:54.563Z,26.50
2019-02-24T10:44:24.089Z,29.30
2019-02-24T10:46:53.541Z,29.82
2019-02-24T10:49:23.093Z,29.98
2019-02-24T10:51:52.547Z,32.93
2019-02-24T10:54:22.046Z,30.37
2019-02-24T10:56:51.486Z,30.30
2019-02-24T10:59:20.963Z,31.93
2019-02-24T11:01:50.435Z,30.15
2019-02-24T11:04:20.007Z,35.08
2019-02-24T11:06:49.533Z,31.73
2019-02-24T11:09:19.129Z,28.65
2019-02-24T11:11:48.598Z,31.45
2019-02-24T11:14:18.180Z,33.27
2019-02-24T11:16:47.692Z,28.15
2019-02-24T11:19:17.228Z,31.45
2019-02-24T11:21:46.799Z,28.87
2019-02-24T11:24:16.365Z,30.17
2019-02-24T11:26:45.876Z,29.10
2019-02-24T11:29:15.425Z,31.95
2019-02-24T11:31:44.943Z,29.87
2019-02-24T11:34:14.527Z,32.70
2019-02-24T11:36:44.021Z,29.83
2019-02-24T11:39:13.504Z,32.30
2019-02-24T11:41:43.187Z,28.30
2019-02-24T11:44:12.782Z,38.95
2019-02-24T11:46:42.417Z,30.48
2019-02-24T11:49:12.062Z,31.63
2019-02-24T11:51:41.594Z,29.80
2019-02-24T11:54:11.499Z,30.30
2019-02-24T11:56:41.097Z,32.65
2019-02-24T11:59:10.905Z,30.57
2019-02-24T12:01:47.263Z,24.87
2019-02-24T12:04:11.707Z,31.00
2019-02-24T12:06:41.451Z,31.27
2019-02-24T12:09:11.158Z,30.48
2019-02-24T12:11:40.731Z,32.50
2019-02-24T12:14:10.168Z,29.67
2019-02-24T12:16:39.633Z,34.55
2019-02-24T12:19:09.548Z,33.90
2019-02-24T12:21:39.043Z,32.40
2019-02-24T12:24:08.481Z,33.15
2019-02-24T12:26:38.138Z,26.35
2019-02-24T12:29:07.810Z,31.60
2019-02-24T12:31:37.430Z,35.15
2019-02-24T12:34:06.977Z,37.88
2019-02-24T12:36:36.513Z,40.20
2019-02-24T12:39:06.742Z,35.23
2019-02-24T12:41:36.378Z,39.58
2019-02-24T12:44:05.825Z,38.33
2019-02-24T12:46:35.617Z,36.25
2019-02-24T12:49:05.130Z,35.73
2019-02-24T12:51:34.520Z,33.20
2019-02-24T12:54:04.248Z,31.73
2019-02-24T12:56:33.690Z,37.13
2019-02-24T12:59:03.242Z,35.83
2019-02-24T13:01:32.748Z,35.65
2019-02-24T13:04:02.312Z,38.80
2019-02-24T13:06:31.737Z,40.43
2019-02-24T13:09:01.587Z,38.45
2019-02-24T13:11:31.246Z,41.48
2019-02-24T13:14:01.121Z,41.07
2019-02-24T13:16:30.572Z,40.80
2019-02-24T13:19:00.156Z,45.17
2019-02-24T13:21:29.791Z,48.52
2019-02-24T13:23:59.358Z,43.87
2019-02-24T13:26:28.897Z,41.25
2019-02-24T13:28:58.490Z,42.98
2019-02-24T13:31:28.029Z,41.83
2019-02-24T13:33:57.459Z,38.28
2019-02-24T13:36:27.020Z,38.50
2019-02-24T13:38:58.282Z,50.92
2019-02-24T13:41:27.632Z,42.13
2019-02-24T13:43:57.200Z,41.13
2019-02-24T13:46:26.943Z,56.28
2019-02-24T13:48:56.470Z,39.07
2019-02-24T13:51:26.408Z,40.55
2019-02-24T13:53:56.019Z,45.55
2019-02-24T13:56:25.711Z,40.90
2019-02-24T13:58:55.328Z,47.73
2019-02-24T14:01:25.099Z,41.40
2019-02-24T14:03:54.724Z,40.03
2019-02-24T14:06:24.455Z,39.15
2019-02-24T14:08:53.878Z,40.83
2019-02-24T14:11:23.357Z,40.67
2019-02-24T14:13:53.429Z,45.20
2019-02-24T14:16:22.888Z,41.10
2019-02-24T14:18:52.533Z,42.60
2019-02-24T14:21:22.102Z,43.40
2019-02-24T14:23:51.611Z,44.38
2019-02-24T14:26:21.235Z,47.03
2019-02-24T14:28:50.777Z,47.75
2019-02-24T14:31:20.296Z,46.13
2019-02-24T14:33:49.902Z,47.55
2019-02-24T14:36:19.338Z,45.58
2019-02-24T14:38:49.298Z,49.67
2019-02-24T14:41:18.794Z,46.80
2019-02-24T14:43:48.249Z,46.02
2019-02-24T14:46:17.857Z,42.60
2019-02-24T14:48:47.427Z,48.28
2019-02-24T14:51:16.901Z,44.67
2019-02-24T14:53:46.644Z,49.20
2019-02-24T14:56:16.135Z,132.97
2019-02-24T14:58:45.656Z,1107.80
2019-02-24T15:01:15.160Z,1142.00
2019-02-24T15:03:44.732Z,392.18
2019-02-24T15:06:14.226Z,88.55
2019-02-24T15:08:43.914Z,54.38
2019-02-24T15:11:13.371Z,93.92
2019-02-24T15:13:43.379Z,104.10
2019-02-24T15:16:12.848Z,61.77
2019-02-24T15:18:42.670Z,55.45
2019-02-24T15:21:12.104Z,53.23
2019-02-24T15:23:41.914Z,58.52
2019-02-24T15:26:11.382Z,54.60
2019-02-24T15:28:40.845Z,59.57
2019-02-24T15:31:10.529Z,52.80
2019-02-24T15:33:40.455Z,54.47
2019-02-24T15:36:10.203Z,47.03
2019-02-24T15:38:39.660Z,41.53
2019-02-24T15:41:09.146Z,42.60
2019-02-24T15:43:38.797Z,39.45
2019-02-24T15:46:08.430Z,53.00
2019-02-24T15:48:38.199Z,70.80
2019-02-24T15:51:07.784Z,72.92
2019-02-24T15:53:37.325Z,71.90
2019-02-24T15:56:06.961Z,78.83
2019-02-24T15:58:36.470Z,97.33
2019-02-24T16:01:06.803Z,712.90
2019-02-24T16:03:36.757Z,128.38
2019-02-24T16:06:06.680Z,99.22
2019-02-24T16:08:36.233Z,58.68
2019-02-24T16:11:05.916Z,108.17
2019-02-24T16:13:35.546Z,878.77
2019-02-24T16:16:05.131Z,699.62
2019-02-24T16:18:34.661Z,1192.20
2019-02-24T16:21:04.201Z,1087.73
2019-02-24T16:23:33.792Z,1288.35
2019-02-24T16:26:03.372Z,920.45
2019-02-24T16:28:32.839Z,1225.48
2019-02-24T16:31:02.440Z,444.40
2019-02-24T16:33:31.944Z,584.48
2019-02-24T16:36:01.490Z,715.02
2019-02-24T16:38:31.366Z,651.75
2019-02-24T16:41:00.954Z,566.05
2019-02-24T16:43:30.388Z,642.30
2019-02-24T16:46:00.075Z,215.97
2019-02-24T16:48:29.528Z,178.95
2019-02-24T16:50:58.996Z,79.67
2019-02-24T16:53:28.646Z,257.77
2019-02-24T16:55:58.166Z,628.50
2019-02-24T16:58:27.630Z,1475.03
2019-02-24T17:00:57.388Z,541.93
2019-02-24T17:03:26.876Z,1625.05
2019-02-24T17:05:56.555Z,949.25
2019-02-24T17:08:26.226Z,773.15
2019-02-24T17:10:55.863Z,682.50
2019-02-24T17:13:25.438Z,634.87
2019-02-24T17:15:54.966Z,970.67
2019-02-24T17:18:24.795Z,252.75
2019-02-24T17:20:54.249Z,489.63
2019-02-24T17:23:23.777Z,237.03
2019-02-24T17:25:53.367Z,146.80
2019-02-24T17:28:22.969Z,81.72
2019-02-24T17:30:52.728Z,65.85
2019-02-24T17:33:29.785Z,73.50
2019-02-24T17:35:53.464Z,62.08
2019-02-24T17:38:23.037Z,60.10
2019-02-24T17:40:53.751Z,62.27
2019-02-24T17:43:23.294Z,61.45
2019-02-24T17:45:53.031Z,56.98
2019-02-24T17:48:22.545Z,64.35
2019-02-24T17:50:52.085Z,63.23
2019-02-24T17:53:21.756Z,64.53
2019-02-24T17:55:51.395Z,57.75
2019-02-24T17:58:21.163Z,62.35
2019-02-24T18:00:58.987Z,58.92
2019-02-24T18:03:28.524Z,62.08
2019-02-24T18:05:58.260Z,55.03
2019-02-24T18:08:28.446Z,71.75
2019-02-24T18:10:58.012Z,67.90
2019-02-24T18:13:27.654Z,73.87
2019-02-24T18:15:57.367Z,90.55
2019-02-24T18:18:26.968Z,89.70
2019-02-24T18:20:56.824Z,86.80
2019-02-24T18:23:26.346Z,89.17
2019-02-24T18:25:56.119Z,86.87
2019-02-24T18:28:25.510Z,83.52
2019-02-24T18:30:54.977Z,101.87
2019-02-24T18:33:24.677Z,127.10
2019-02-24T18:35:54.111Z,86.08
2019-02-24T18:38:23.524Z,93.10
2019-02-24T18:40:52.923Z,87.30
2019-02-24T18:43:23.302Z,85.12
2019-02-24T18:45:53.157Z,89.55
2019-02-24T18:48:22.639Z,88.62
2019-02-24T18:50:52.230Z,90.83
2019-02-24T18:53:21.652Z,86.10
2019-02-24T18:55:51.106Z,95.90
2019-02-24T18:58:21.247Z,91.32
2019-02-24T19:00:51.102Z,83.57
2019-02-24T19:03:20.602Z,91.23
2019-02-24T19:05:50.394Z,88.87
2019-02-24T19:08:19.918Z,87.27
2019-02-24T19:10:50.037Z,89.50
2019-02-24T19:13:21.199Z,90.67
2019-02-24T19:15:50.849Z,96.78
2019-02-24T19:18:20.534Z,100.87
2019-02-24T19:20:50.098Z,84.13
2019-02-24T19:23:19.598Z,89.67
2019-02-24T19:25:49.388Z,91.35
2019-02-24T19:28:18.945Z,90.12
2019-02-24T19:30:48.598Z,87.25
2019-02-24T19:33:18.096Z,92.17
2019-02-24T19:35:47.812Z,90.75
2019-02-24T19:38:17.438Z,90.32
2019-02-24T19:40:48.348Z,92.23
2019-02-24T19:43:17.807Z,93.78
2019-02-24T19:45:47.825Z,93.20
2019-02-24T19:48:19.858Z,106.83
2019-02-24T19:50:49.484Z,94.07
2019-02-24T19:53:18.888Z,88.50
2019-02-24T19:55:48.517Z,88.35
2019-02-24T19:58:18.124Z,84.28
2019-02-24T20:00:47.559Z,83.55
2019-02-24T20:03:17.245Z,121.57
2019-02-24T20:05:46.781Z,90.22
2019-02-24T20:08:16.276Z,83.17
2019-02-24T20:10:45.813Z,93.97
2019-02-24T20:13:15.300Z,90.65
2019-02-24T20:15:45.190Z,96.00
2019-02-24T20:18:14.667Z,98.03
2019-02-24T20:20:44.350Z,94.67
2019-02-24T20:23:13.978Z,84.32
2019-02-24T20:25:43.407Z,82.07
2019-02-24T20:28:12.965Z,85.92
2019-02-24T20:30:42.556Z,86.45
2019-02-24T20:33:12.013Z,88.43
2019-02-24T20:35:41.453Z,84.67
2019-02-24T20:38:11.102Z,93.55
2019-02-24T20:40:40.570Z,88.60
2019-02-24T20:43:10.113Z,89.72
2019-02-24T20:45:39.549Z,85.47
2019-02-24T20:48:09.104Z,89.25
2019-02-24T20:50:38.549Z,87.10
2019-02-24T20:53:08.024Z,86.35
2019-02-24T20:55:37.672Z,91.00
2019-02-24T20:58:07.149Z,81.60
2019-02-24T21:00:39.194Z,82.20
2019-02-24T21:03:08.634Z,84.85
2019-02-24T21:05:38.304Z,86.90
2019-02-24T21:08:08.148Z,116.88
2019-02-24T21:10:38.189Z,86.78
2019-02-24T21:13:08.270Z,80.60
2019-02-24T21:15:37.754Z,81.28
2019-02-24T21:18:07.523Z,82.12
2019-02-24T21:20:37.130Z,81.15
2019-02-24T21:23:07.018Z,84.97
2019-02-24T21:25:36.464Z,85.87
2019-02-24T21:28:05.944Z,80.32
2019-02-24T21:30:35.564Z,84.87
2019-02-24T21:33:05.084Z,77.00
2019-02-24T21:35:34.538Z,81.60
2019-02-24T21:38:04.806Z,84.35
2019-02-24T21:40:34.463Z,84.13
2019-02-24T21:43:04.033Z,86.95
2019-02-24T21:45:33.648Z,86.45
2019-02-24T21:48:03.234Z,80.42
2019-02-24T21:50:32.816Z,81.30
2019-02-24T21:53:02.436Z,86.63
2019-02-24T21:55:31.898Z,81.90
2019-02-24T21:58:01.367Z,86.15
2019-02-24T22:00:31.241Z,89.43
2019-02-24T22:03:00.823Z,85.50
2019-02-24T22:05:30.649Z,81.28
2019-02-24T22:08:00.075Z,90.00
2019-02-24T22:10:29.562Z,79.55
2019-02-24T22:12:59.495Z,84.85
2019-02-24T22:15:29.240Z,87.53
2019-02-24T22:17:58.808Z,85.55
2019-02-24T22:20:28.265Z,108.77
2019-02-24T22:22:58.008Z,81.02
2019-02-24T22:25:27.499Z,83.80
2019-02-24T22:27:56.967Z,86.08
2019-02-24T22:30:26.602Z,78.83
2019-02-24T22:32:56.046Z,74.35
2019-02-24T22:35:25.490Z,83.60
2019-02-24T22:37:55.087Z,76.75
2019-02-24T22:40:24.510Z,80.38
2019-02-24T22:42:53.922Z,81.87
2019-02-24T22:45:23.448Z,77.67
2019-02-24T22:47:53.179Z,77.78
2019-02-24T22:50:22.616Z,80.67
2019-02-24T22:52:52.036Z,84.22
2019-02-24T22:55:21.788Z,77.50
2019-02-24T22:57:51.240Z,85.57
2019-02-24T23:01:00.544Z,81.97
2019-02-24T23:03:35.579Z,79.60
2019-02-24T23:06:06.520Z,81.75
2019-02-24T23:08:35.932Z,80.67
2019-02-24T23:11:05.387Z,84.85
2019-02-24T23:13:35.605Z,84.03
2019-02-24T23:16:05.252Z,82.25
2019-02-24T23:18:34.788Z,89.65
2019-02-24T23:21:04.538Z,79.92
2019-02-24T23:23:33.984Z,79.90
2019-02-24T23:26:03.520Z,83.07
2019-02-24T23:28:33.796Z,82.92
2019-02-24T23:31:03.677Z,76.37
2019-02-24T23:33:33.162Z,73.57
2019-02-24T23:36:03.451Z,72.73
2019-02-24T23:38:33.296Z,76.47
2019-02-24T23:41:02.773Z,73.65
2019-02-24T23:43:32.289Z,72.95
2019-02-24T23:46:01.926Z,79.77
2019-02-24T23:48:31.348Z,76.82
2019-02-24T23:51:00.821Z,73.50
2019-02-24T23:53:30.384Z,68.83
2019-02-24T23:55:59.853Z,67.05
2019-02-24T23:58:29.306Z,68.20
